sensor_id;sensor_type;location;lat;lon;timestamp;P1;durP1;ratioP1;P2;durP2;ratioP2
31732;SDS011;18312;51.486;7.144;2022-10-16T00:01:24;7.95;;;1.98;;
31732;SDS011;18312;51.486;7.144;2022-10-16T00:03:52;5.95;;;2.15;;
31732;SDS011;18312;51.486;7.144;2022-10-16T00:06:21;4.95;;;2.00;;
31732;SDS011;18312;51.486;7.144;2022-10-16T00:08:49;7.75;;;1.90;;
31732;SDS011;18312;51.486;7.144;2022-10-16T00:11:18;4.78;;;1.98;;
31732;SDS011;18312;51.486;7.144;2022-10-16T00:13:47;7.38;;;2.30;;
31732;SDS011;18312;51.486;7.144;2022-10-16T00:16:15;3.25;;;1.58;;
31732;SDS011;18312;51.486;7.144;2022-10-16T00:18:42;3.67;;;1.73;;
31732;SDS011;18312;51.486;7.144;2022-10-16T00:21:09;5.50;;;1.80;;
31732;SDS011;18312;51.486;7.144;2022-10-16T00:23:38;5.88;;;2.08;;
31732;SDS011;18312;51.486;7.144;2022-10-16T00:26:07;3.20;;;1.50;;
31732;SDS011;18312;51.486;7.144;2022-10-16T00:28:36;3.22;;;1.95;;
31732;SDS011;18312;51.486;7.144;2022-10-16T00:31:03;3.95;;;1.75;;
31732;SDS011;18312;51.486;7.144;2022-10-16T00:33:30;5.32;;;1.90;;
31732;SDS011;18312;51.486;7.144;2022-10-16T00:35:57;2.30;;;1.48;;
31732;SDS011;18312;51.486;7.144;2022-10-16T00:38:24;3.42;;;1.42;;
31732;SDS011;18312;51.486;7.144;2022-10-16T00:40:50;2.97;;;1.15;;
31732;SDS011;18312;51.486;7.144;2022-10-16T00:46:03;2.28;;;1.55;;
31732;SDS011;18312;51.486;7.144;2022-10-16T00:48:31;3.65;;;1.58;;
31732;SDS011;18312;51.486;7.144;2022-10-16T00:50:58;1.77;;;1.40;;
31732;SDS011;18312;51.486;7.144;2022-10-16T00:53:25;3.28;;;1.30;;
31732;SDS011;18312;51.486;7.144;2022-10-16T00:55:53;5.40;;;1.30;;
31732;SDS011;18312;51.486;7.144;2022-10-16T00:58:20;3.53;;;1.25;;
31732;SDS011;18312;51.486;7.144;2022-10-16T01:00:48;1.65;;;1.15;;
31732;SDS011;18312;51.486;7.144;2022-10-16T01:03:23;2.20;;;1.20;;
31732;SDS011;18312;51.486;7.144;2022-10-16T01:05:54;1.60;;;1.08;;
31732;SDS011;18312;51.486;7.144;2022-10-16T01:08:29;1.35;;;0.90;;
31732;SDS011;18312;51.486;7.144;2022-10-16T01:11:05;1.90;;;0.93;;
31732;SDS011;18312;51.486;7.144;2022-10-16T01:13:41;2.35;;;0.90;;
31732;SDS011;18312;51.486;7.144;2022-10-16T01:16:12;6.75;;;1.25;;
31732;SDS011;18312;51.486;7.144;2022-10-16T01:18:44;2.25;;;0.95;;
31732;SDS011;18312;51.486;7.144;2022-10-16T01:21:15;2.95;;;1.25;;
31732;SDS011;18312;51.486;7.144;2022-10-16T01:23:49;2.13;;;1.00;;
31732;SDS011;18312;51.486;7.144;2022-10-16T01:26:30;0.93;;;0.75;;
31732;SDS011;18312;51.486;7.144;2022-10-16T01:29:05;2.17;;;0.93;;
31732;SDS011;18312;51.486;7.144;2022-10-16T01:31:40;1.95;;;1.10;;
31732;SDS011;18312;51.486;7.144;2022-10-16T01:34:14;2.03;;;0.93;;
31732;SDS011;18312;51.486;7.144;2022-10-16T01:36:45;1.70;;;1.02;;
31732;SDS011;18312;51.486;7.144;2022-10-16T01:39:16;1.38;;;0.82;;
31732;SDS011;18312;51.486;7.144;2022-10-16T01:41:48;2.92;;;0.80;;
31732;SDS011;18312;51.486;7.144;2022-10-16T01:44:22;2.03;;;1.02;;
31732;SDS011;18312;51.486;7.144;2022-10-16T01:46:52;1.92;;;1.10;;
31732;SDS011;18312;51.486;7.144;2022-10-16T01:49:20;0.98;;;0.80;;
31732;SDS011;18312;51.486;7.144;2022-10-16T01:51:50;3.63;;;1.10;;
31732;SDS011;18312;51.486;7.144;2022-10-16T01:54:21;2.25;;;0.77;;
31732;SDS011;18312;51.486;7.144;2022-10-16T01:56:51;1.20;;;0.77;;
31732;SDS011;18312;51.486;7.144;2022-10-16T01:59:23;1.90;;;0.73;;
31732;SDS011;18312;51.486;7.144;2022-10-16T02:01:52;4.22;;;0.98;;
31732;SDS011;18312;51.486;7.144;2022-10-16T02:04:26;1.67;;;0.93;;
31732;SDS011;18312;51.486;7.144;2022-10-16T02:06:55;2.20;;;0.82;;
31732;SDS011;18312;51.486;7.144;2022-10-16T02:09:22;1.80;;;0.95;;
31732;SDS011;18312;51.486;7.144;2022-10-16T02:11:49;1.63;;;1.13;;
31732;SDS011;18312;51.486;7.144;2022-10-16T02:14:18;2.85;;;1.00;;
31732;SDS011;18312;51.486;7.144;2022-10-16T02:16:48;3.17;;;1.10;;
31732;SDS011;18312;51.486;7.144;2022-10-16T02:19:15;5.15;;;1.10;;
31732;SDS011;18312;51.486;7.144;2022-10-16T02:21:47;3.40;;;0.95;;
31732;SDS011;18312;51.486;7.144;2022-10-16T02:24:17;9.60;;;1.35;;
31732;SDS011;18312;51.486;7.144;2022-10-16T02:26:51;2.63;;;1.50;;
31732;SDS011;18312;51.486;7.144;2022-10-16T02:29:24;1.50;;;1.30;;
31732;SDS011;18312;51.486;7.144;2022-10-16T02:31:53;2.28;;;1.10;;
31732;SDS011;18312;51.486;7.144;2022-10-16T02:34:24;6.65;;;1.17;;
31732;SDS011;18312;51.486;7.144;2022-10-16T02:36:52;4.97;;;1.13;;
31732;SDS011;18312;51.486;7.144;2022-10-16T02:39:20;4.55;;;1.15;;
31732;SDS011;18312;51.486;7.144;2022-10-16T02:41:47;1.70;;;1.00;;
31732;SDS011;18312;51.486;7.144;2022-10-16T02:44:14;1.77;;;1.20;;
31732;SDS011;18312;51.486;7.144;2022-10-16T02:46:40;2.88;;;1.40;;
31732;SDS011;18312;51.486;7.144;2022-10-16T02:49:08;2.28;;;1.33;;
31732;SDS011;18312;51.486;7.144;2022-10-16T02:51:35;2.30;;;0.80;;
31732;SDS011;18312;51.486;7.144;2022-10-16T02:54:02;2.25;;;1.02;;
31732;SDS011;18312;51.486;7.144;2022-10-16T02:56:29;3.33;;;1.73;;
31732;SDS011;18312;51.486;7.144;2022-10-16T02:58:56;1.80;;;1.00;;
31732;SDS011;18312;51.486;7.144;2022-10-16T03:01:23;1.98;;;1.30;;
31732;SDS011;18312;51.486;7.144;2022-10-16T03:03:50;1.90;;;1.02;;
31732;SDS011;18312;51.486;7.144;2022-10-16T03:06:18;10.98;;;1.42;;
31732;SDS011;18312;51.486;7.144;2022-10-16T03:08:45;1.52;;;1.13;;
31732;SDS011;18312;51.486;7.144;2022-10-16T03:11:11;3.25;;;1.58;;
31732;SDS011;18312;51.486;7.144;2022-10-16T03:13:38;2.17;;;0.80;;
31732;SDS011;18312;51.486;7.144;2022-10-16T03:16:05;3.83;;;0.85;;
31732;SDS011;18312;51.486;7.144;2022-10-16T03:18:31;1.20;;;0.85;;
31732;SDS011;18312;51.486;7.144;2022-10-16T03:20:58;1.52;;;0.85;;
31732;SDS011;18312;51.486;7.144;2022-10-16T03:23:26;3.72;;;0.73;;
31732;SDS011;18312;51.486;7.144;2022-10-16T03:25:53;1.17;;;0.77;;
31732;SDS011;18312;51.486;7.144;2022-10-16T03:28:20;2.83;;;0.70;;
31732;SDS011;18312;51.486;7.144;2022-10-16T03:30:47;3.28;;;0.98;;
31732;SDS011;18312;51.486;7.144;2022-10-16T03:33:15;4.10;;;0.73;;
31732;SDS011;18312;51.486;7.144;2022-10-16T03:35:41;3.22;;;0.80;;
31732;SDS011;18312;51.486;7.144;2022-10-16T03:38:08;2.50;;;0.70;;
31732;SDS011;18312;51.486;7.144;2022-10-16T03:40:36;7.53;;;0.88;;
31732;SDS011;18312;51.486;7.144;2022-10-16T03:43:03;1.00;;;0.82;;
31732;SDS011;18312;51.486;7.144;2022-10-16T03:45:29;1.75;;;1.65;;
31732;SDS011;18312;51.486;7.144;2022-10-16T03:47:56;2.40;;;0.75;;
31732;SDS011;18312;51.486;7.144;2022-10-16T03:50:23;1.20;;;0.73;;
31732;SDS011;18312;51.486;7.144;2022-10-16T03:52:50;1.83;;;0.70;;
31732;SDS011;18312;51.486;7.144;2022-10-16T03:55:16;1.83;;;0.90;;
31732;SDS011;18312;51.486;7.144;2022-10-16T03:57:44;1.02;;;0.77;;
31732;SDS011;18312;51.486;7.144;2022-10-16T04:00:12;1.88;;;0.57;;
31732;SDS011;18312;51.486;7.144;2022-10-16T04:02:39;3.10;;;0.77;;
31732;SDS011;18312;51.486;7.144;2022-10-16T04:05:06;2.30;;;0.77;;
31732;SDS011;18312;51.486;7.144;2022-10-16T04:07:33;0.90;;;0.70;;
31732;SDS011;18312;51.486;7.144;2022-10-16T04:10:00;1.48;;;0.80;;
31732;SDS011;18312;51.486;7.144;2022-10-16T04:12:26;4.32;;;0.75;;
31732;SDS011;18312;51.486;7.144;2022-10-16T04:14:54;2.30;;;0.60;;
31732;SDS011;18312;51.486;7.144;2022-10-16T04:17:21;1.42;;;0.85;;
31732;SDS011;18312;51.486;7.144;2022-10-16T04:19:48;2.67;;;0.80;;
31732;SDS011;18312;51.486;7.144;2022-10-16T04:22:14;1.98;;;0.80;;
31732;SDS011;18312;51.486;7.144;2022-10-16T04:24:41;2.22;;;0.75;;
31732;SDS011;18312;51.486;7.144;2022-10-16T04:27:08;1.77;;;0.73;;
31732;SDS011;18312;51.486;7.144;2022-10-16T04:29:35;4.32;;;0.60;;
31732;SDS011;18312;51.486;7.144;2022-10-16T04:32:03;3.00;;;1.10;;
31732;SDS011;18312;51.486;7.144;2022-10-16T04:34:30;2.47;;;0.80;;
31732;SDS011;18312;51.486;7.144;2022-10-16T04:36:56;1.52;;;1.20;;
31732;SDS011;18312;51.486;7.144;2022-10-16T04:39:23;1.50;;;0.73;;
31732;SDS011;18312;51.486;7.144;2022-10-16T04:41:50;2.55;;;0.85;;
31732;SDS011;18312;51.486;7.144;2022-10-16T04:44:16;1.15;;;0.70;;
31732;SDS011;18312;51.486;7.144;2022-10-16T04:46:43;1.15;;;1.00;;
31732;SDS011;18312;51.486;7.144;2022-10-16T04:49:11;3.75;;;0.80;;
31732;SDS011;18312;51.486;7.144;2022-10-16T04:51:38;5.20;;;1.02;;
31732;SDS011;18312;51.486;7.144;2022-10-16T04:54:05;3.53;;;0.82;;
31732;SDS011;18312;51.486;7.144;2022-10-16T04:56:31;2.33;;;1.40;;
31732;SDS011;18312;51.486;7.144;2022-10-16T04:59:05;2.60;;;0.77;;
31732;SDS011;18312;51.486;7.144;2022-10-16T05:01:31;1.73;;;0.60;;
31732;SDS011;18312;51.486;7.144;2022-10-16T05:03:58;1.02;;;0.70;;
31732;SDS011;18312;51.486;7.144;2022-10-16T05:06:26;1.58;;;0.60;;
31732;SDS011;18312;51.486;7.144;2022-10-16T05:08:53;1.30;;;0.98;;
31732;SDS011;18312;51.486;7.144;2022-10-16T05:11:20;1.88;;;1.60;;
31732;SDS011;18312;51.486;7.144;2022-10-16T05:13:46;2.42;;;0.50;;
31732;SDS011;18312;51.486;7.144;2022-10-16T05:16:13;2.40;;;0.70;;
31732;SDS011;18312;51.486;7.144;2022-10-16T05:18:41;3.13;;;0.90;;
31732;SDS011;18312;51.486;7.144;2022-10-16T05:21:07;1.55;;;0.70;;
31732;SDS011;18312;51.486;7.144;2022-10-16T05:23:35;2.55;;;1.00;;
31732;SDS011;18312;51.486;7.144;2022-10-16T05:26:02;1.25;;;0.73;;
31732;SDS011;18312;51.486;7.144;2022-10-16T05:28:30;1.83;;;0.90;;
31732;SDS011;18312;51.486;7.144;2022-10-16T05:30:57;2.67;;;1.00;;
31732;SDS011;18312;51.486;7.144;2022-10-16T05:33:24;1.23;;;0.82;;
31732;SDS011;18312;51.486;7.144;2022-10-16T05:35:51;0.98;;;0.70;;
31732;SDS011;18312;51.486;7.144;2022-10-16T05:38:18;1.05;;;0.60;;
31732;SDS011;18312;51.486;7.144;2022-10-16T05:40:51;3.47;;;1.27;;
31732;SDS011;18312;51.486;7.144;2022-10-16T05:43:18;6.72;;;0.85;;
31732;SDS011;18312;51.486;7.144;2022-10-16T05:45:52;2.45;;;1.00;;
31732;SDS011;18312;51.486;7.144;2022-10-16T05:48:20;2.17;;;0.75;;
31732;SDS011;18312;51.486;7.144;2022-10-16T05:50:47;0.77;;;0.77;;
31732;SDS011;18312;51.486;7.144;2022-10-16T05:53:14;1.55;;;0.80;;
31732;SDS011;18312;51.486;7.144;2022-10-16T05:55:41;1.20;;;0.90;;
31732;SDS011;18312;51.486;7.144;2022-10-16T05:58:09;3.58;;;1.02;;
31732;SDS011;18312;51.486;7.144;2022-10-16T06:00:36;0.80;;;0.63;;
31732;SDS011;18312;51.486;7.144;2022-10-16T06:03:02;1.75;;;0.85;;
31732;SDS011;18312;51.486;7.144;2022-10-16T06:05:31;0.80;;;0.70;;
31732;SDS011;18312;51.486;7.144;2022-10-16T06:07:58;1.85;;;0.90;;
31732;SDS011;18312;51.486;7.144;2022-10-16T06:10:25;2.25;;;0.88;;
31732;SDS011;18312;51.486;7.144;2022-10-16T06:12:51;2.20;;;0.90;;
31732;SDS011;18312;51.486;7.144;2022-10-16T06:15:19;1.33;;;0.88;;
31732;SDS011;18312;51.486;7.144;2022-10-16T06:17:46;2.67;;;0.88;;
31732;SDS011;18312;51.486;7.144;2022-10-16T06:20:13;2.97;;;1.38;;
31732;SDS011;18312;51.486;7.144;2022-10-16T06:22:40;1.27;;;0.60;;
31732;SDS011;18312;51.486;7.144;2022-10-16T06:25:06;2.85;;;1.08;;
31732;SDS011;18312;51.486;7.144;2022-10-16T06:27:33;1.45;;;0.77;;
31732;SDS011;18312;51.486;7.144;2022-10-16T06:30:00;5.13;;;0.80;;
31732;SDS011;18312;51.486;7.144;2022-10-16T06:32:30;1.70;;;0.80;;
31732;SDS011;18312;51.486;7.144;2022-10-16T06:34:56;3.35;;;1.05;;
31732;SDS011;18312;51.486;7.144;2022-10-16T06:37:23;2.10;;;1.17;;
31732;SDS011;18312;51.486;7.144;2022-10-16T06:39:50;2.22;;;1.20;;
31732;SDS011;18312;51.486;7.144;2022-10-16T06:42:18;5.93;;;0.85;;
31732;SDS011;18312;51.486;7.144;2022-10-16T06:44:45;2.33;;;1.48;;
31732;SDS011;18312;51.486;7.144;2022-10-16T06:47:12;1.00;;;0.75;;
31732;SDS011;18312;51.486;7.144;2022-10-16T06:49:40;3.83;;;1.35;;
31732;SDS011;18312;51.486;7.144;2022-10-16T06:52:06;2.33;;;1.20;;
31732;SDS011;18312;51.486;7.144;2022-10-16T06:54:33;2.75;;;0.98;;
31732;SDS011;18312;51.486;7.144;2022-10-16T06:57:00;0.85;;;0.80;;
31732;SDS011;18312;51.486;7.144;2022-10-16T06:59:26;3.35;;;1.30;;
31732;SDS011;18312;51.486;7.144;2022-10-16T07:01:53;3.03;;;0.90;;
31732;SDS011;18312;51.486;7.144;2022-10-16T07:04:20;4.68;;;0.98;;
31732;SDS011;18312;51.486;7.144;2022-10-16T07:06:48;2.80;;;1.25;;
31732;SDS011;18312;51.486;7.144;2022-10-16T07:09:16;5.05;;;1.00;;
31732;SDS011;18312;51.486;7.144;2022-10-16T07:11:43;1.98;;;1.25;;
31732;SDS011;18312;51.486;7.144;2022-10-16T07:14:12;1.85;;;1.20;;
31732;SDS011;18312;51.486;7.144;2022-10-16T07:16:41;2.13;;;1.10;;
31732;SDS011;18312;51.486;7.144;2022-10-16T07:19:08;2.30;;;1.27;;
31732;SDS011;18312;51.486;7.144;2022-10-16T07:21:37;4.20;;;1.27;;
31732;SDS011;18312;51.486;7.144;2022-10-16T07:24:05;2.20;;;0.88;;
31732;SDS011;18312;51.486;7.144;2022-10-16T07:26:34;3.88;;;1.27;;
31732;SDS011;18312;51.486;7.144;2022-10-16T07:29:04;1.20;;;0.93;;
31732;SDS011;18312;51.486;7.144;2022-10-16T07:31:31;1.38;;;1.00;;
31732;SDS011;18312;51.486;7.144;2022-10-16T07:33:58;1.35;;;0.98;;
31732;SDS011;18312;51.486;7.144;2022-10-16T07:36:25;4.88;;;1.00;;
31732;SDS011;18312;51.486;7.144;2022-10-16T07:38:53;4.35;;;1.00;;
31732;SDS011;18312;51.486;7.144;2022-10-16T07:41:21;3.08;;;1.65;;
31732;SDS011;18312;51.486;7.144;2022-10-16T07:43:48;2.15;;;1.10;;
31732;SDS011;18312;51.486;7.144;2022-10-16T07:46:16;2.95;;;1.02;;
31732;SDS011;18312;51.486;7.144;2022-10-16T07:48:43;4.05;;;1.08;;
31732;SDS011;18312;51.486;7.144;2022-10-16T07:51:13;1.80;;;0.93;;
31732;SDS011;18312;51.486;7.144;2022-10-16T07:53:40;2.63;;;1.20;;
31732;SDS011;18312;51.486;7.144;2022-10-16T07:56:07;1.85;;;1.52;;
31732;SDS011;18312;51.486;7.144;2022-10-16T07:58:36;1.65;;;1.08;;
31732;SDS011;18312;51.486;7.144;2022-10-16T08:01:03;2.65;;;1.10;;
31732;SDS011;18312;51.486;7.144;2022-10-16T08:03:32;1.60;;;0.77;;
31732;SDS011;18312;51.486;7.144;2022-10-16T08:05:59;1.00;;;0.70;;
31732;SDS011;18312;51.486;7.144;2022-10-16T08:08:26;2.67;;;1.00;;
31732;SDS011;18312;51.486;7.144;2022-10-16T08:10:53;1.05;;;0.95;;
31732;SDS011;18312;51.486;7.144;2022-10-16T08:13:20;1.83;;;0.60;;
31732;SDS011;18312;51.486;7.144;2022-10-16T08:15:48;4.90;;;0.80;;
31732;SDS011;18312;51.486;7.144;2022-10-16T08:18:15;1.40;;;0.80;;
31732;SDS011;18312;51.486;7.144;2022-10-16T08:20:42;4.82;;;1.00;;
31732;SDS011;18312;51.486;7.144;2022-10-16T08:23:09;3.20;;;0.85;;
31732;SDS011;18312;51.486;7.144;2022-10-16T08:25:38;0.60;;;0.60;;
31732;SDS011;18312;51.486;7.144;2022-10-16T08:28:05;2.58;;;1.10;;
31732;SDS011;18312;51.486;7.144;2022-10-16T08:30:32;1.20;;;0.70;;
31732;SDS011;18312;51.486;7.144;2022-10-16T08:33:01;1.08;;;0.60;;
31732;SDS011;18312;51.486;7.144;2022-10-16T08:35:29;2.50;;;0.43;;
31732;SDS011;18312;51.486;7.144;2022-10-16T08:37:55;4.38;;;0.43;;
31732;SDS011;18312;51.486;7.144;2022-10-16T08:40:23;2.80;;;0.68;;
31732;SDS011;18312;51.486;7.144;2022-10-16T08:43:07;3.03;;;0.57;;
31732;SDS011;18312;51.486;7.144;2022-10-16T08:45:50;1.42;;;0.70;;
31732;SDS011;18312;51.486;7.144;2022-10-16T08:48:34;5.50;;;0.98;;
31732;SDS011;18312;51.486;7.144;2022-10-16T08:51:09;1.13;;;0.52;;
31732;SDS011;18312;51.486;7.144;2022-10-16T08:53:42;2.05;;;0.60;;
31732;SDS011;18312;51.486;7.144;2022-10-16T08:56:12;2.45;;;0.68;;
31732;SDS011;18312;51.486;7.144;2022-10-16T08:58:38;5.53;;;0.80;;
31732;SDS011;18312;51.486;7.144;2022-10-16T09:01:15;1.65;;;0.40;;
31732;SDS011;18312;51.486;7.144;2022-10-16T09:03:49;2.53;;;0.60;;
31732;SDS011;18312;51.486;7.144;2022-10-16T09:06:35;1.58;;;0.50;;
31732;SDS011;18312;51.486;7.144;2022-10-16T09:09:14;2.10;;;0.80;;
31732;SDS011;18312;51.486;7.144;2022-10-16T09:12:15;1.70;;;0.60;;
31732;SDS011;18312;51.486;7.144;2022-10-16T09:14:50;5.72;;;0.52;;
31732;SDS011;18312;51.486;7.144;2022-10-16T09:17:27;1.20;;;0.60;;
31732;SDS011;18312;51.486;7.144;2022-10-16T09:20:08;1.98;;;0.45;;
31732;SDS011;18312;51.486;7.144;2022-10-16T09:22:44;6.93;;;0.82;;
31732;SDS011;18312;51.486;7.144;2022-10-16T09:25:12;1.98;;;0.40;;
31732;SDS011;18312;51.486;7.144;2022-10-16T09:27:40;0.40;;;0.32;;
31732;SDS011;18312;51.486;7.144;2022-10-16T09:30:12;3.00;;;0.50;;
31732;SDS011;18312;51.486;7.144;2022-10-16T09:32:39;4.13;;;0.50;;
31732;SDS011;18312;51.486;7.144;2022-10-16T09:35:12;2.00;;;0.73;;
31732;SDS011;18312;51.486;7.144;2022-10-16T09:37:41;0.95;;;0.55;;
31732;SDS011;18312;51.486;7.144;2022-10-16T09:40:12;1.30;;;0.40;;
31732;SDS011;18312;51.486;7.144;2022-10-16T09:42:39;4.80;;;0.70;;
31732;SDS011;18312;51.486;7.144;2022-10-16T09:45:18;3.88;;;0.60;;
31732;SDS011;18312;51.486;7.144;2022-10-16T09:47:47;0.77;;;0.40;;
31732;SDS011;18312;51.486;7.144;2022-10-16T09:50:21;3.03;;;0.55;;
31732;SDS011;18312;51.486;7.144;2022-10-16T09:52:51;1.58;;;0.68;;
31732;SDS011;18312;51.486;7.144;2022-10-16T09:55:29;2.40;;;0.70;;
31732;SDS011;18312;51.486;7.144;2022-10-16T09:57:55;4.28;;;0.43;;
31732;SDS011;18312;51.486;7.144;2022-10-16T10:00:23;2.03;;;0.57;;
31732;SDS011;18312;51.486;7.144;2022-10-16T10:02:50;2.30;;;0.63;;
31732;SDS011;18312;51.486;7.144;2022-10-16T10:05:19;7.93;;;0.95;;
31732;SDS011;18312;51.486;7.144;2022-10-16T10:07:53;4.80;;;0.68;;
31732;SDS011;18312;51.486;7.144;2022-10-16T10:10:23;1.02;;;0.50;;
31732;SDS011;18312;51.486;7.144;2022-10-16T10:12:51;1.23;;;0.30;;
31732;SDS011;18312;51.486;7.144;2022-10-16T10:15:18;6.28;;;0.60;;
31732;SDS011;18312;51.486;7.144;2022-10-16T10:17:47;3.03;;;0.60;;
31732;SDS011;18312;51.486;7.144;2022-10-16T10:20:20;4.65;;;0.65;;
31732;SDS011;18312;51.486;7.144;2022-10-16T10:22:51;2.08;;;0.55;;
31732;SDS011;18312;51.486;7.144;2022-10-16T10:25:26;2.58;;;0.40;;
31732;SDS011;18312;51.486;7.144;2022-10-16T10:30:44;0.52;;;0.35;;
31732;SDS011;18312;51.486;7.144;2022-10-16T10:33:20;2.40;;;0.40;;
31732;SDS011;18312;51.486;7.144;2022-10-16T10:35:55;1.90;;;0.38;;
31732;SDS011;18312;51.486;7.144;2022-10-16T10:38:31;2.17;;;0.38;;
31732;SDS011;18312;51.486;7.144;2022-10-16T10:41:09;2.53;;;0.57;;
31732;SDS011;18312;51.486;7.144;2022-10-16T10:43:50;1.80;;;0.70;;
31732;SDS011;18312;51.486;7.144;2022-10-16T10:46:35;2.78;;;1.27;;
31732;SDS011;18312;51.486;7.144;2022-10-16T10:49:10;1.48;;;1.00;;
31732;SDS011;18312;51.486;7.144;2022-10-16T10:51:58;2.00;;;0.55;;
31732;SDS011;18312;51.486;7.144;2022-10-16T10:54:35;0.97;;;0.50;;
31732;SDS011;18312;51.486;7.144;2022-10-16T10:57:09;1.08;;;0.40;;
31732;SDS011;18312;51.486;7.144;2022-10-16T11:02:48;1.85;;;0.40;;
31732;SDS011;18312;51.486;7.144;2022-10-16T11:05:32;0.70;;;0.30;;
31732;SDS011;18312;51.486;7.144;2022-10-16T11:08:13;0.57;;;0.40;;
31732;SDS011;18312;51.486;7.144;2022-10-16T11:10:46;1.58;;;0.60;;
31732;SDS011;18312;51.486;7.144;2022-10-16T11:13:23;3.20;;;1.10;;
31732;SDS011;18312;51.486;7.144;2022-10-16T11:15:57;2.42;;;0.50;;
31732;SDS011;18312;51.486;7.144;2022-10-16T11:18:27;1.70;;;0.45;;
31732;SDS011;18312;51.486;7.144;2022-10-16T11:21:00;0.45;;;0.40;;
31732;SDS011;18312;51.486;7.144;2022-10-16T11:23:33;4.25;;;0.55;;
31732;SDS011;18312;51.486;7.144;2022-10-16T11:26:05;4.63;;;1.02;;
31732;SDS011;18312;51.486;7.144;2022-10-16T11:28:39;2.83;;;0.73;;
31732;SDS011;18312;51.486;7.144;2022-10-16T11:31:13;1.77;;;0.43;;
31732;SDS011;18312;51.486;7.144;2022-10-16T11:33:45;1.17;;;0.50;;
31732;SDS011;18312;51.486;7.144;2022-10-16T11:36:17;3.35;;;0.68;;
31732;SDS011;18312;51.486;7.144;2022-10-16T11:38:51;3.47;;;0.65;;
31732;SDS011;18312;51.486;7.144;2022-10-16T11:41:24;4.18;;;0.75;;
31732;SDS011;18312;51.486;7.144;2022-10-16T11:44:05;3.88;;;0.40;;
31732;SDS011;18312;51.486;7.144;2022-10-16T11:46:42;2.20;;;0.40;;
31732;SDS011;18312;51.486;7.144;2022-10-16T11:49:14;2.72;;;0.40;;
31732;SDS011;18312;51.486;7.144;2022-10-16T11:51:45;2.95;;;0.32;;
31732;SDS011;18312;51.486;7.144;2022-10-16T11:54:20;1.65;;;0.88;;
31732;SDS011;18312;51.486;7.144;2022-10-16T11:56:53;1.33;;;0.50;;
31732;SDS011;18312;51.486;7.144;2022-10-16T11:59:25;2.55;;;0.30;;
31732;SDS011;18312;51.486;7.144;2022-10-16T12:01:57;3.00;;;0.40;;
31732;SDS011;18312;51.486;7.144;2022-10-16T12:04:39;3.65;;;0.40;;
31732;SDS011;18312;51.486;7.144;2022-10-16T12:07:11;3.67;;;0.73;;
31732;SDS011;18312;51.486;7.144;2022-10-16T12:09:44;0.35;;;0.20;;
31732;SDS011;18312;51.486;7.144;2022-10-16T12:12:24;0.73;;;0.40;;
31732;SDS011;18312;51.486;7.144;2022-10-16T12:14:59;1.90;;;0.20;;
31732;SDS011;18312;51.486;7.144;2022-10-16T12:17:34;2.42;;;0.30;;
31732;SDS011;18312;51.486;7.144;2022-10-16T12:20:18;1.23;;;0.35;;
31732;SDS011;18312;51.486;7.144;2022-10-16T12:22:47;2.53;;;0.20;;
31732;SDS011;18312;51.486;7.144;2022-10-16T12:25:24;3.42;;;0.35;;
31732;SDS011;18312;51.486;7.144;2022-10-16T12:27:54;0.95;;;0.40;;
31732;SDS011;18312;51.486;7.144;2022-10-16T12:30:26;0.70;;;0.20;;
31732;SDS011;18312;51.486;7.144;2022-10-16T12:32:56;1.38;;;0.32;;
31732;SDS011;18312;51.486;7.144;2022-10-16T12:35:25;4.53;;;0.45;;
31732;SDS011;18312;51.486;7.144;2022-10-16T12:37:54;3.72;;;0.50;;
31732;SDS011;18312;51.486;7.144;2022-10-16T12:40:34;0.32;;;0.25;;
31732;SDS011;18312;51.486;7.144;2022-10-16T12:43:13;5.93;;;0.60;;
31732;SDS011;18312;51.486;7.144;2022-10-16T12:46:04;3.97;;;0.30;;
31732;SDS011;18312;51.486;7.144;2022-10-16T12:48:47;1.83;;;0.40;;
31732;SDS011;18312;51.486;7.144;2022-10-16T12:51:25;2.13;;;0.40;;
31732;SDS011;18312;51.486;7.144;2022-10-16T12:54:00;1.08;;;0.30;;
31732;SDS011;18312;51.486;7.144;2022-10-16T12:56:31;1.95;;;0.30;;
31732;SDS011;18312;51.486;7.144;2022-10-16T12:59:09;2.10;;;0.50;;
31732;SDS011;18312;51.486;7.144;2022-10-16T13:01:50;3.88;;;0.40;;
31732;SDS011;18312;51.486;7.144;2022-10-16T13:07:32;0.73;;;0.40;;
31732;SDS011;18312;51.486;7.144;2022-10-16T13:10:14;1.65;;;0.20;;
31732;SDS011;18312;51.486;7.144;2022-10-16T13:15:52;2.05;;;0.32;;
31732;SDS011;18312;51.486;7.144;2022-10-16T13:18:29;4.22;;;0.50;;
31732;SDS011;18312;51.486;7.144;2022-10-16T13:21:08;5.18;;;0.30;;
31732;SDS011;18312;51.486;7.144;2022-10-16T13:23:46;1.50;;;0.37;;
31732;SDS011;18312;51.486;7.144;2022-10-16T13:26:23;5.20;;;0.32;;
31732;SDS011;18312;51.486;7.144;2022-10-16T13:28:59;3.63;;;0.35;;
31732;SDS011;18312;51.486;7.144;2022-10-16T13:31:27;2.88;;;0.40;;
31732;SDS011;18312;51.486;7.144;2022-10-16T13:33:55;0.70;;;0.35;;
31732;SDS011;18312;51.486;7.144;2022-10-16T13:36:25;5.05;;;0.38;;
31732;SDS011;18312;51.486;7.144;2022-10-16T13:39:00;3.45;;;0.50;;
31732;SDS011;18312;51.486;7.144;2022-10-16T13:41:32;2.42;;;0.40;;
31732;SDS011;18312;51.486;7.144;2022-10-16T13:44:02;4.38;;;0.40;;
31732;SDS011;18312;51.486;7.144;2022-10-16T13:46:29;3.33;;;0.25;;
31732;SDS011;18312;51.486;7.144;2022-10-16T13:48:59;1.08;;;0.20;;
31732;SDS011;18312;51.486;7.144;2022-10-16T13:51:28;2.05;;;0.43;;
31732;SDS011;18312;51.486;7.144;2022-10-16T13:53:55;3.90;;;0.30;;
31732;SDS011;18312;51.486;7.144;2022-10-16T13:56:24;0.52;;;0.40;;
31732;SDS011;18312;51.486;7.144;2022-10-16T13:59:04;2.03;;;0.50;;
31732;SDS011;18312;51.486;7.144;2022-10-16T14:01:32;0.73;;;0.32;;
31732;SDS011;18312;51.486;7.144;2022-10-16T14:04:02;1.47;;;0.50;;
31732;SDS011;18312;51.486;7.144;2022-10-16T14:06:30;1.50;;;0.30;;
31732;SDS011;18312;51.486;7.144;2022-10-16T14:08:59;3.03;;;0.40;;
31732;SDS011;18312;51.486;7.144;2022-10-16T14:11:30;0.55;;;0.30;;
31732;SDS011;18312;51.486;7.144;2022-10-16T14:13:58;1.15;;;0.35;;
31732;SDS011;18312;51.486;7.144;2022-10-16T14:16:28;3.53;;;0.35;;
31732;SDS011;18312;51.486;7.144;2022-10-16T14:18:57;2.25;;;0.95;;
31732;SDS011;18312;51.486;7.144;2022-10-16T14:21:25;0.70;;;0.30;;
31732;SDS011;18312;51.486;7.144;2022-10-16T14:23:53;0.65;;;0.20;;
31732;SDS011;18312;51.486;7.144;2022-10-16T14:26:23;2.95;;;0.45;;
31732;SDS011;18312;51.486;7.144;2022-10-16T14:29:01;0.63;;;0.43;;
31732;SDS011;18312;51.486;7.144;2022-10-16T14:31:37;1.88;;;0.30;;
31732;SDS011;18312;51.486;7.144;2022-10-16T14:34:05;3.53;;;0.47;;
31732;SDS011;18312;51.486;7.144;2022-10-16T14:36:52;6.55;;;0.30;;
31732;SDS011;18312;51.486;7.144;2022-10-16T14:39:20;0.70;;;0.32;;
31732;SDS011;18312;51.486;7.144;2022-10-16T14:41:48;1.70;;;0.32;;
31732;SDS011;18312;51.486;7.144;2022-10-16T14:44:16;1.00;;;0.40;;
31732;SDS011;18312;51.486;7.144;2022-10-16T14:46:46;0.35;;;0.20;;
31732;SDS011;18312;51.486;7.144;2022-10-16T14:49:15;1.23;;;0.50;;
31732;SDS011;18312;51.486;7.144;2022-10-16T14:51:43;2.33;;;0.38;;
31732;SDS011;18312;51.486;7.144;2022-10-16T14:54:10;3.92;;;0.40;;
31732;SDS011;18312;51.486;7.144;2022-10-16T14:56:45;1.50;;;0.40;;
31732;SDS011;18312;51.486;7.144;2022-10-16T14:59:15;1.20;;;0.52;;
31732;SDS011;18312;51.486;7.144;2022-10-16T15:01:46;3.10;;;0.70;;
31732;SDS011;18312;51.486;7.144;2022-10-16T15:04:13;3.15;;;0.70;;
31732;SDS011;18312;51.486;7.144;2022-10-16T15:06:41;0.63;;;0.40;;
31732;SDS011;18312;51.486;7.144;2022-10-16T15:09:08;2.85;;;0.57;;
31732;SDS011;18312;51.486;7.144;2022-10-16T15:11:35;4.22;;;0.63;;
31732;SDS011;18312;51.486;7.144;2022-10-16T15:14:04;4.15;;;0.68;;
31732;SDS011;18312;51.486;7.144;2022-10-16T15:16:31;4.43;;;0.82;;
31732;SDS011;18312;51.486;7.144;2022-10-16T15:18:59;2.97;;;0.95;;
31732;SDS011;18312;51.486;7.144;2022-10-16T15:21:27;6.32;;;0.88;;